createdAt,value
2023-05-12T00:00:12.988Z,101067.72
2023-05-12T00:02:39.991Z,101056.19
2023-05-12T00:05:07.361Z,101060.59
2023-05-12T00:07:34.404Z,101053.53
2023-05-12T00:10:01.283Z,101060.69
2023-05-12T00:12:28.156Z,101061.63
2023-05-12T00:14:55.129Z,101067.91
2023-05-12T00:17:22.158Z,101067.00
2023-05-12T00:19:49.007Z,101084.84
2023-05-12T00:22:16.930Z,101070.59
2023-05-12T00:24:43.804Z,101075.94
2023-05-12T00:27:10.590Z,101075.06
2023-05-12T00:29:37.471Z,101081.31
2023-05-12T00:32:04.566Z,101080.41
2023-05-12T00:34:31.361Z,101084.94
2023-05-12T00:36:58.201Z,101075.16
2023-05-12T00:39:25.023Z,101079.59
2023-05-12T00:42:06.846Z,101081.38
2023-05-12T00:44:33.795Z,101084.06
2023-05-12T00:47:00.594Z,101085.03
2023-05-12T00:49:27.754Z,101088.56
2023-05-12T00:51:55.827Z,101081.47
2023-05-12T00:54:23.146Z,101085.88
2023-05-12T00:56:50.141Z,101077.00
2023-05-12T00:59:16.909Z,101081.47
2023-05-12T01:01:44.172Z,101068.97
2023-05-12T01:04:11.144Z,101076.09
2023-05-12T01:06:51.514Z,101074.34
2023-05-12T01:09:19.006Z,101074.34
2023-05-12T01:11:45.788Z,101076.16
2023-05-12T01:14:12.580Z,101086.84
2023-05-12T01:17:11.415Z,101088.66
2023-05-12T01:19:49.752Z,101086.84
2023-05-12T01:22:18.106Z,101094.91
2023-05-12T01:24:55.904Z,101094.91
2023-05-12T01:27:28.407Z,101090.47
2023-05-12T01:29:59.426Z,101085.13
2023-05-12T01:32:26.743Z,101086.97
2023-05-12T01:34:53.535Z,101094.06
2023-05-12T01:37:20.653Z,101106.53
2023-05-12T01:39:47.549Z,101117.31
2023-05-12T01:42:14.406Z,101127.13
2023-05-12T01:44:41.232Z,101133.38
2023-05-12T01:47:09.960Z,101135.16
2023-05-12T01:49:37.750Z,101136.06
2023-05-12T01:52:05.014Z,101135.19
2023-05-12T01:54:31.780Z,101142.38
2023-05-12T01:56:58.545Z,101142.38
2023-05-12T01:59:25.373Z,101137.03
2023-05-12T02:01:52.232Z,101135.25
2023-05-12T02:04:19.075Z,101137.84
2023-05-12T02:06:45.938Z,101141.47
2023-05-12T02:09:13.219Z,101151.34
2023-05-12T02:11:40.123Z,101152.28
2023-05-12T02:14:06.907Z,101154.94
2023-05-12T02:16:33.714Z,101156.72
2023-05-12T02:19:00.609Z,101149.63
2023-05-12T02:21:28.003Z,101147.84
2023-05-12T02:23:56.139Z,101151.41
2023-05-12T02:26:22.981Z,101137.19
2023-05-12T02:28:49.758Z,101141.66
2023-05-12T02:31:16.704Z,101129.28
2023-05-12T02:33:43.496Z,101124.84
2023-05-12T02:36:10.275Z,101128.47
2023-05-12T02:38:37.042Z,101133.81
2023-05-12T02:41:03.818Z,101132.03
2023-05-12T02:43:30.603Z,101136.53
2023-05-12T02:45:57.418Z,101119.63
2023-05-12T02:48:24.232Z,101126.75
2023-05-12T02:50:51.082Z,101123.16
2023-05-12T02:53:17.860Z,101122.31
2023-05-12T02:55:44.665Z,101118.78
2023-05-12T02:58:11.544Z,101119.66
2023-05-12T03:00:38.314Z,101115.22
2023-05-12T03:03:05.276Z,101127.69
2023-05-12T03:05:32.074Z,101119.66
2023-05-12T03:07:58.987Z,101122.34
2023-05-12T03:10:25.961Z,101120.59
2023-05-12T03:12:52.753Z,101125.91
2023-05-12T03:15:19.554Z,101118.78
2023-05-12T03:17:46.345Z,101117.94
2023-05-12T03:20:13.236Z,101122.41
2023-05-12T03:22:40.035Z,101127.81
2023-05-12T03:25:10.112Z,101130.44
2023-05-12T03:27:36.877Z,101134.03
2023-05-12T03:30:05.567Z,101127.81
2023-05-12T03:32:32.377Z,101129.59
2023-05-12T03:34:59.155Z,101130.50
2023-05-12T03:37:26.298Z,101130.50
2023-05-12T03:39:55.990Z,101135.03
2023-05-12T03:42:24.012Z,101135.06
2023-05-12T03:44:54.085Z,101121.75
2023-05-12T03:47:20.976Z,101131.50
2023-05-12T03:49:47.803Z,101151.13
2023-05-12T03:52:14.849Z,101150.25
2023-05-12T03:54:41.596Z,101145.78
2023-05-12T03:57:08.376Z,101155.63
2023-05-12T03:59:35.273Z,101152.97
2023-05-12T04:02:02.193Z,101143.19
2023-05-12T04:04:29.077Z,101152.16
2023-05-12T04:06:56.200Z,101156.59
2023-05-12T04:09:22.996Z,101148.59
2023-05-12T04:11:49.822Z,101150.38
2023-05-12T04:14:16.566Z,101167.34
2023-05-12T04:16:43.366Z,101177.13
2023-05-12T04:19:10.240Z,101159.28
2023-05-12T04:21:37.009Z,101170.91
2023-05-12T04:24:04.084Z,101176.25
2023-05-12T04:26:30.826Z,101169.13
2023-05-12T04:28:57.583Z,101186.09
2023-05-12T04:31:24.438Z,101191.44
2023-05-12T04:33:51.851Z,101184.34
2023-05-12T04:36:18.609Z,101191.47
2023-05-12T04:38:45.725Z,101187.00
2023-05-12T04:41:12.530Z,101187.91
2023-05-12T04:46:09.072Z,101195.91
2023-05-12T04:48:41.732Z,101193.25
2023-05-12T04:51:08.887Z,101200.31
2023-05-12T04:53:36.225Z,101194.06
2023-05-12T04:56:03.801Z,101202.06
2023-05-12T04:58:30.603Z,101204.75
2023-05-12T05:00:57.497Z,101207.38
2023-05-12T05:03:24.645Z,101214.50
2023-05-12T05:05:51.521Z,101202.88
2023-05-12T05:08:18.479Z,101210.81
2023-05-12T05:10:45.369Z,101211.72
2023-05-12T05:13:12.204Z,101209.03
2023-05-12T05:15:39.022Z,101216.16
2023-05-12T05:18:05.986Z,101211.66
2023-05-12T05:20:34.323Z,101221.47
2023-05-12T05:23:01.285Z,101211.66
2023-05-12T05:25:28.089Z,101223.25
2023-05-12T05:27:55.692Z,101220.56
2023-05-12T05:30:22.499Z,101224.97
2023-05-12T05:32:49.418Z,101225.81
2023-05-12T05:35:16.671Z,101228.44
2023-05-12T05:37:43.547Z,101241.78
2023-05-12T05:40:10.555Z,101237.22
2023-05-12T05:42:37.529Z,101235.41
2023-05-12T05:45:04.847Z,101240.69
2023-05-12T05:47:32.209Z,101234.44
2023-05-12T05:49:59.105Z,101238.00
2023-05-12T05:52:25.953Z,101244.19
2023-05-12T05:54:52.938Z,101237.91
2023-05-12T05:57:19.749Z,101244.97
2023-05-12T05:59:46.942Z,101242.31
2023-05-12T06:02:14.004Z,101246.69
2023-05-12T06:04:40.785Z,101242.22
2023-05-12T06:07:07.625Z,101257.31
2023-05-12T06:09:34.404Z,101258.19
2023-05-12T06:12:01.247Z,101255.47
2023-05-12T06:14:28.089Z,101264.41
2023-05-12T06:16:54.989Z,101262.53
2023-05-12T06:19:21.799Z,101263.41
2023-05-12T06:21:48.579Z,101257.16
2023-05-12T06:24:15.360Z,101272.31
2023-05-12T06:26:42.126Z,101279.41
2023-05-12T06:29:09.006Z,101274.00
2023-05-12T06:31:35.974Z,101275.75
2023-05-12T06:34:03.152Z,101282.88
2023-05-12T06:36:30.454Z,101279.31
2023-05-12T06:38:57.348Z,101277.50
2023-05-12T06:41:25.227Z,101277.53
2023-05-12T06:43:52.257Z,101284.66
2023-05-12T06:46:19.219Z,101284.56
2023-05-12T06:48:46.282Z,101289.84
2023-05-12T06:51:13.561Z,101286.25
2023-05-12T06:53:43.581Z,101289.78
2023-05-12T06:56:14.306Z,101294.16
2023-05-12T06:58:41.078Z,101291.44
2023-05-12T07:01:07.989Z,101283.31
2023-05-12T07:03:34.957Z,101293.06
2023-05-12T07:06:01.837Z,101285.84
2023-05-12T07:08:28.752Z,101291.19
2023-05-12T07:10:55.677Z,101287.44
2023-05-12T07:13:22.716Z,101296.28
2023-05-12T07:15:49.637Z,101289.91
2023-05-12T07:18:16.644Z,101281.78
2023-05-12T07:20:43.955Z,101292.38
2023-05-12T07:23:10.780Z,101296.78
2023-05-12T07:25:37.901Z,101292.31
2023-05-12T07:28:05.368Z,101290.47
2023-05-12T07:30:32.245Z,101297.56
2023-05-12T07:33:01.113Z,101299.25
2023-05-12T07:35:28.161Z,101290.25
2023-05-12T07:37:55.085Z,101285.69
2023-05-12T07:40:22.057Z,101298.09
2023-05-12T07:42:48.926Z,101294.47
2023-05-12T07:45:22.870Z,101292.63
2023-05-12T07:47:50.930Z,101293.41
2023-05-12T07:50:18.760Z,101292.31
2023-05-12T07:52:52.986Z,101292.16
2023-05-12T07:55:22.167Z,101299.22
2023-05-12T07:57:52.379Z,101295.50
2023-05-12T08:00:19.428Z,101292.72
2023-05-12T08:02:47.217Z,101290.81
2023-05-12T08:05:14.652Z,101290.59
2023-05-12T08:07:43.612Z,101294.94
2023-05-12T08:10:12.914Z,101293.88
2023-05-12T08:12:41.058Z,101297.31
2023-05-12T08:15:09.436Z,101293.63
2023-05-12T08:17:36.284Z,101292.66
2023-05-12T08:20:06.702Z,101296.97
2023-05-12T08:22:33.898Z,101294.97
2023-05-12T08:25:00.669Z,101285.81
2023-05-12T08:27:27.551Z,101299.09
2023-05-12T08:29:54.348Z,101302.56
2023-05-12T08:32:21.202Z,101295.22
2023-05-12T08:34:53.159Z,101293.22
2023-05-12T08:37:20.751Z,101291.31
2023-05-12T08:39:47.640Z,101293.84
2023-05-12T08:42:50.198Z,101298.00
2023-05-12T08:45:17.983Z,101287.09
2023-05-12T08:47:45.996Z,101290.44
2023-05-12T08:50:14.386Z,101287.50
2023-05-12T08:52:41.423Z,101284.59
2023-05-12T08:55:09.933Z,101295.16
2023-05-12T08:57:39.495Z,101289.63
2023-05-12T09:00:08.953Z,101285.03
2023-05-12T09:02:52.193Z,101291.22
2023-05-12T09:05:20.576Z,101290.41
2023-05-12T09:07:49.678Z,101285.78
2023-05-12T09:10:32.748Z,101296.28
2023-05-12T09:13:20.603Z,101299.59
2023-05-12T09:15:48.841Z,101297.66
2023-05-12T09:18:16.107Z,101291.09
2023-05-12T09:20:43.145Z,101296.31
2023-05-12T09:23:28.291Z,101301.34
2023-05-12T09:26:01.505Z,101298.47
2023-05-12T09:28:36.731Z,101300.09
2023-05-12T09:31:24.167Z,101299.06
2023-05-12T09:33:52.024Z,101302.47
2023-05-12T09:36:21.527Z,101302.19
2023-05-12T09:39:07.118Z,101301.94
2023-05-12T09:41:42.904Z,101298.13
2023-05-12T09:44:10.970Z,101300.59
2023-05-12T09:46:39.805Z,101298.47
2023-05-12T09:49:06.793Z,101300.91
2023-05-12T09:51:33.873Z,101304.25
2023-05-12T09:54:01.069Z,101294.19
2023-05-12T09:56:29.647Z,101298.41
2023-05-12T09:58:57.461Z,101297.25
2023-05-12T10:01:25.640Z,101302.31
2023-05-12T10:03:57.585Z,101297.63
2023-05-12T10:06:36.518Z,101303.72
2023-05-12T10:09:21.958Z,101307.09
2023-05-12T10:11:53.502Z,101306.22
2023-05-12T10:14:22.960Z,101306.25
2023-05-12T10:16:51.193Z,101301.78
2023-05-12T10:19:19.215Z,101299.06
2023-05-12T10:21:47.145Z,101307.84
2023-05-12T10:24:17.662Z,101298.59
2023-05-12T10:26:44.856Z,101300.13
2023-05-12T10:29:12.748Z,101302.53
2023-05-12T10:31:40.060Z,101298.63
2023-05-12T10:34:07.356Z,101304.41
2023-05-12T10:36:49.732Z,101314.81
2023-05-12T10:39:16.970Z,101310.84
2023-05-12T10:41:43.923Z,101301.63
2023-05-12T10:44:10.876Z,101321.22
2023-05-12T10:46:37.803Z,101311.09
2023-05-12T10:49:10.140Z,101311.78
2023-05-12T10:51:43.014Z,101306.41
2023-05-12T10:54:13.152Z,101308.16
2023-05-12T10:56:40.289Z,101309.78
2023-05-12T10:59:23.643Z,101318.59
2023-05-12T11:01:58.921Z,101313.09
2023-05-12T11:04:46.640Z,101306.75
2023-05-12T11:07:17.008Z,101300.41
2023-05-12T11:12:16.088Z,101301.47
2023-05-12T11:14:45.454Z,101299.25
2023-05-12T11:17:12.760Z,101304.25
2023-05-12T11:19:40.180Z,101298.56
2023-05-12T11:22:12.269Z,101296.56
2023-05-12T11:24:41.340Z,101298.06
2023-05-12T11:27:14.708Z,101291.28
2023-05-12T11:29:43.383Z,101290.91
2023-05-12T11:32:12.471Z,101291.47
2023-05-12T11:34:39.549Z,101276.53
2023-05-12T11:37:08.960Z,101278.78
2023-05-12T11:39:36.452Z,101283.81
2023-05-12T11:42:12.205Z,101289.91
2023-05-12T11:44:50.037Z,101297.22
2023-05-12T11:47:21.795Z,101291.19
2023-05-12T11:49:55.088Z,101287.25
2023-05-12T11:52:24.306Z,101294.81
2023-05-12T11:55:00.843Z,101294.94
2023-05-12T11:57:32.655Z,101296.97
2023-05-12T12:00:05.603Z,101295.22
2023-05-12T12:02:33.363Z,101302.28
2023-05-12T12:05:00.803Z,101293.66
2023-05-12T12:07:35.322Z,101286.72
2023-05-12T12:10:12.916Z,101285.84
2023-05-12T12:12:41.258Z,101288.56
2023-05-12T12:15:09.899Z,101297.72
2023-05-12T12:17:37.331Z,101301.56
2023-05-12T12:20:04.455Z,101297.25
2023-05-12T12:22:34.129Z,101297.91
2023-05-12T12:25:02.767Z,101289.22
2023-05-12T12:27:29.713Z,101294.88
2023-05-12T12:29:56.608Z,101305.03
2023-05-12T12:32:23.651Z,101297.09
2023-05-12T12:34:50.572Z,101292.72
2023-05-12T12:37:17.636Z,101297.50
2023-05-12T12:39:44.596Z,101292.47
2023-05-12T12:42:11.489Z,101303.06
2023-05-12T12:44:38.342Z,101304.06
2023-05-12T12:47:05.489Z,101293.69
2023-05-12T12:49:32.352Z,101298.69
2023-05-12T12:51:59.213Z,101300.00
2023-05-12T12:54:27.375Z,101283.78
2023-05-12T12:56:55.603Z,101286.97
2023-05-12T12:59:23.295Z,101281.91
2023-05-12T13:01:50.346Z,101294.72
2023-05-12T13:04:22.102Z,101290.59
2023-05-12T13:06:49.405Z,101286.16
2023-05-12T13:09:19.538Z,101288.75
2023-05-12T13:11:47.653Z,101291.88
2023-05-12T13:14:14.673Z,101286.00
2023-05-12T13:16:41.857Z,101294.06
2023-05-12T13:19:09.020Z,101293.19
2023-05-12T13:21:35.915Z,101286.63
2023-05-12T13:24:02.793Z,101280.03
2023-05-12T13:26:29.685Z,101274.69
2023-05-12T13:28:56.437Z,101282.88
2023-05-12T13:31:23.463Z,101284.09
2023-05-12T13:33:50.499Z,101284.41
2023-05-12T13:36:17.609Z,101279.94
2023-05-12T13:38:45.730Z,101267.84
2023-05-12T13:41:12.543Z,101263.34
2023-05-12T13:43:39.324Z,101272.31
2023-05-12T13:46:06.192Z,101263.69
2023-05-12T13:48:33.004Z,101259.66
2023-05-12T13:51:02.240Z,101256.53
2023-05-12T13:53:32.205Z,101268.00
2023-05-12T13:55:59.034Z,101273.53
2023-05-12T13:58:26.022Z,101274.81
2023-05-12T14:00:55.876Z,101275.31
2023-05-12T14:03:22.673Z,101282.16
2023-05-12T14:05:52.497Z,101264.63
2023-05-12T14:08:22.341Z,101269.25
2023-05-12T14:10:49.158Z,101269.00
2023-05-12T14:13:16.192Z,101272.19
2023-05-12T14:15:49.343Z,101265.41
2023-05-12T14:18:17.023Z,101268.50
2023-05-12T14:20:43.907Z,101272.97
2023-05-12T14:23:10.646Z,101277.00
2023-05-12T14:25:37.529Z,101281.09
2023-05-12T14:28:04.432Z,101267.84
2023-05-12T14:30:31.416Z,101273.41
2023-05-12T14:32:58.401Z,101263.81
2023-05-12T14:35:27.477Z,101271.19
2023-05-12T14:37:55.284Z,101271.19
2023-05-12T14:40:23.081Z,101277.38
2023-05-12T14:42:49.852Z,101271.78
2023-05-12T14:45:16.721Z,101275.22
2023-05-12T14:47:43.653Z,101272.19
2023-05-12T14:50:11.212Z,101278.25
2023-05-12T14:52:40.542Z,101276.19
2023-05-12T14:55:12.414Z,101274.03
2023-05-12T14:57:40.872Z,101281.03
2023-05-12T15:00:13.466Z,101277.34
2023-05-12T15:02:43.859Z,101266.50
2023-05-12T15:05:13.448Z,101273.69
2023-05-12T15:07:40.877Z,101277.34
2023-05-12T15:10:08.262Z,101282.00
2023-05-12T15:12:35.202Z,101281.53
2023-05-12T15:15:04.664Z,101281.09
2023-05-12T15:17:32.235Z,101281.41
2023-05-12T15:19:59.154Z,101280.50
2023-05-12T15:22:26.260Z,101278.38
2023-05-12T15:24:53.339Z,101271.72
2023-05-12T15:27:24.928Z,101284.97
2023-05-12T15:29:53.693Z,101275.75
2023-05-12T15:32:20.539Z,101275.63
2023-05-12T15:34:47.323Z,101281.81
2023-05-12T15:37:14.172Z,101276.50
2023-05-12T15:39:40.947Z,101290.19
2023-05-12T15:42:07.998Z,101281.53
2023-05-12T15:44:35.378Z,101283.78
2023-05-12T15:47:02.280Z,101271.47
2023-05-12T15:49:29.164Z,101277.19
2023-05-12T15:51:55.921Z,101270.94
2023-05-12T15:54:26.466Z,101274.41
2023-05-12T15:56:53.269Z,101269.69
2023-05-12T15:59:20.188Z,101266.94
2023-05-12T16:01:47.440Z,101273.09
2023-05-12T16:04:14.384Z,101273.09
2023-05-12T16:06:41.215Z,101279.31
2023-05-12T16:09:08.002Z,101278.50
2023-05-12T16:11:34.771Z,101275.97
2023-05-12T16:14:02.601Z,101275.78
2023-05-12T16:16:30.337Z,101264.16
2023-05-12T16:18:57.233Z,101271.47
2023-05-12T16:21:24.072Z,101269.88
2023-05-12T16:23:50.963Z,101270.06
2023-05-12T16:26:19.279Z,101276.44
2023-05-12T16:28:46.368Z,101273.88
2023-05-12T16:31:17.687Z,101273.16
2023-05-12T16:33:44.642Z,101265.19
2023-05-12T16:36:11.478Z,101264.41
2023-05-12T16:38:38.452Z,101259.06
2023-05-12T16:41:05.338Z,101265.25
2023-05-12T16:43:32.187Z,101267.19
2023-05-12T16:46:04.031Z,101268.06
2023-05-12T16:48:34.390Z,101265.41
2023-05-12T16:51:06.988Z,101260.19
2023-05-12T16:53:34.742Z,101265.72
2023-05-12T16:56:01.753Z,101260.41
2023-05-12T16:58:32.550Z,101255.94
2023-05-12T17:01:01.049Z,101264.16
2023-05-12T17:03:29.371Z,101264.31
2023-05-12T17:05:56.299Z,101266.94
2023-05-12T17:08:23.211Z,101271.50
2023-05-12T17:10:51.177Z,101271.63
2023-05-12T17:13:17.929Z,101278.97
2023-05-12T17:15:47.108Z,101280.88
2023-05-12T17:18:14.128Z,101279.16
2023-05-12T17:20:40.925Z,101282.81
2023-05-12T17:23:08.177Z,101288.22
2023-05-12T17:25:36.591Z,101296.53
2023-05-12T17:28:04.373Z,101291.25
2023-05-12T17:30:31.179Z,101284.16
2023-05-12T17:32:58.666Z,101287.81
2023-05-12T17:35:25.585Z,101291.47
2023-05-12T17:37:55.143Z,101292.34
2023-05-12T17:40:22.636Z,101292.53
2023-05-12T17:42:50.188Z,101299.84
2023-05-12T17:45:17.971Z,101300.78
2023-05-12T17:47:45.722Z,101300.00
2023-05-12T17:50:14.818Z,101301.88
2023-05-12T17:52:43.425Z,101306.50
2023-05-12T17:55:10.716Z,101298.50
2023-05-12T17:57:37.941Z,101302.19
2023-05-12T18:00:10.303Z,101297.88
2023-05-12T18:02:38.548Z,101299.72
2023-05-12T18:05:06.152Z,101303.44
2023-05-12T18:07:33.593Z,101318.00
2023-05-12T18:10:00.910Z,101310.13
2023-05-12T18:12:27.838Z,101308.50
2023-05-12T18:14:54.686Z,101318.53
2023-05-12T18:17:21.580Z,101307.84
2023-05-12T18:19:48.450Z,101307.13
2023-05-12T18:22:16.705Z,101318.03
2023-05-12T18:24:43.589Z,101313.72
2023-05-12T18:27:10.425Z,101310.28
2023-05-12T18:29:37.322Z,101307.81
2023-05-12T18:32:04.289Z,101317.03
2023-05-12T18:34:31.127Z,101312.84
2023-05-12T18:36:57.926Z,101323.00
2023-05-12T18:39:25.001Z,101321.38
2023-05-12T18:41:51.925Z,101318.97
2023-05-12T18:44:18.788Z,101315.59
2023-05-12T18:46:45.581Z,101321.22
2023-05-12T18:49:12.418Z,101321.41
2023-05-12T18:51:39.208Z,101335.16
2023-05-12T18:54:06.037Z,101335.38
2023-05-12T18:56:32.971Z,101337.41
2023-05-12T18:59:00.019Z,101337.66
2023-05-12T19:01:27.679Z,101342.47
2023-05-12T19:03:54.653Z,101345.53
2023-05-12T19:06:21.535Z,101352.09
2023-05-12T19:08:48.304Z,101354.25
2023-05-12T19:11:15.103Z,101354.47
2023-05-12T19:13:45.122Z,101366.44
2023-05-12T19:16:12.042Z,101362.25
2023-05-12T19:18:38.956Z,101359.78
2023-05-12T19:21:05.939Z,101360.91
2023-05-12T19:23:32.763Z,101367.47
2023-05-12T19:25:59.609Z,101354.22
2023-05-12T19:28:26.412Z,101358.94
2023-05-12T19:30:54.840Z,101362.72
2023-05-12T19:33:22.021Z,101361.97
2023-05-12T19:35:48.873Z,101363.09
2023-05-12T19:38:15.680Z,101368.69
2023-05-12T19:40:42.550Z,101369.78
2023-05-12T19:43:10.563Z,101359.22
2023-05-12T19:45:37.449Z,101375.63
2023-05-12T19:48:04.725Z,101369.56
2023-05-12T19:50:31.918Z,101370.69
2023-05-12T19:52:58.688Z,101369.13
2023-05-12T19:55:25.734Z,101371.13
2023-05-12T19:57:52.506Z,101374.88
2023-05-12T20:00:21.973Z,101387.66
2023-05-12T20:02:49.167Z,101385.19
2023-05-12T20:05:16.027Z,101387.19
2023-05-12T20:10:09.853Z,101385.88
2023-05-12T20:12:36.635Z,101392.38
2023-05-12T20:15:03.668Z,101395.25
2023-05-12T20:17:30.562Z,101386.44
2023-05-12T20:19:57.334Z,101395.56
2023-05-12T20:22:24.145Z,101399.31
2023-05-12T20:24:51.262Z,101398.59
2023-05-12T20:27:18.162Z,101406.91
2023-05-12T20:29:44.960Z,101407.94
2023-05-12T20:32:14.176Z,101400.06
2023-05-12T20:34:41.207Z,101407.38
2023-05-12T20:37:08.048Z,101409.44
2023-05-12T20:39:34.850Z,101414.91
2023-05-12T20:42:01.834Z,101416.88
2023-05-12T20:44:28.644Z,101415.22
2023-05-12T20:46:56.156Z,101413.56
2023-05-12T20:49:25.740Z,101411.91
2023-05-12T20:51:52.640Z,101415.66
2023-05-12T20:54:19.475Z,101412.19
2023-05-12T20:56:46.325Z,101411.47
2023-05-12T20:59:13.635Z,101408.88
2023-05-12T21:01:40.479Z,101407.22
2023-05-12T21:04:07.576Z,101412.75
2023-05-12T21:06:35.856Z,101419.09
2023-05-12T21:09:04.939Z,101418.41
2023-05-12T21:11:31.780Z,101423.03
2023-05-12T21:13:58.555Z,101426.69
2023-05-12T21:16:25.392Z,101420.53
2023-05-12T21:18:52.190Z,101427.88
2023-05-12T21:21:19.055Z,101413.59
2023-05-12T21:23:46.198Z,101420.94
2023-05-12T21:26:13.122Z,101428.16
2023-05-12T21:28:39.921Z,101426.50
2023-05-12T21:31:06.849Z,101428.44
2023-05-12T21:33:33.673Z,101434.84
2023-05-12T21:36:00.520Z,101435.88
2023-05-12T21:38:27.328Z,101429.72
2023-05-12T21:40:57.980Z,101439.66
2023-05-12T21:43:24.797Z,101433.47
2023-05-12T21:45:52.383Z,101436.28
2023-05-12T21:48:19.271Z,101435.50
2023-05-12T21:50:56.995Z,101434.72
2023-05-12T21:53:23.764Z,101435.75
2023-05-12T21:55:50.590Z,101438.56
2023-05-12T21:58:18.318Z,101440.47
2023-05-12T22:00:45.267Z,101437.03
2023-05-12T22:03:12.381Z,101433.47
2023-05-12T22:05:39.312Z,101447.06
2023-05-12T22:08:06.258Z,101446.28
2023-05-12T22:10:33.077Z,101441.00
2023-05-12T22:12:59.887Z,101441.09
2023-05-12T22:15:26.695Z,101443.84
2023-05-12T22:17:53.786Z,101446.63
2023-05-12T22:20:23.030Z,101456.53
2023-05-12T22:22:52.430Z,101451.25
2023-05-12T22:25:19.216Z,101456.75
2023-05-12T22:27:45.986Z,101454.16
2023-05-12T22:30:13.434Z,101456.03
2023-05-12T22:32:42.461Z,101451.63
2023-05-12T22:35:09.423Z,101455.28
2023-05-12T22:37:36.514Z,101458.06
2023-05-12T22:40:03.829Z,101459.97
2023-05-12T22:42:30.625Z,101460.00
2023-05-12T22:44:58.258Z,101463.59
2023-05-12T22:47:27.993Z,101453.81
2023-05-12T22:49:54.803Z,101466.41
2023-05-12T22:52:21.568Z,101467.34
2023-05-12T22:54:53.695Z,101466.53
2023-05-12T22:57:24.936Z,101463.91
2023-05-12T22:59:51.709Z,101464.00
2023-05-12T23:02:18.573Z,101467.59
2023-05-12T23:04:45.541Z,101471.22
2023-05-12T23:07:12.471Z,101477.56
2023-05-12T23:09:39.666Z,101467.69
2023-05-12T23:12:07.068Z,101468.59
2023-05-12T23:14:33.944Z,101473.06
2023-05-12T23:17:00.912Z,101471.28
2023-05-12T23:19:27.954Z,101457.00
2023-05-12T23:21:54.729Z,101460.63
2023-05-12T23:24:21.633Z,101466.88
2023-05-12T23:26:48.436Z,101465.06
2023-05-12T23:29:15.232Z,101454.38
2023-05-12T23:31:42.015Z,101449.94
2023-05-12T23:34:08.822Z,101461.59
2023-05-12T23:36:35.704Z,101450.94
2023-05-12T23:39:02.536Z,101456.38
2023-05-12T23:41:31.580Z,101453.72
2023-05-12T23:43:58.738Z,101450.19
2023-05-12T23:46:26.119Z,101446.66
2023-05-12T23:48:55.255Z,101445.84
2023-05-12T23:51:22.891Z,101447.72
2023-05-12T23:53:52.696Z,101446.88
2023-05-12T23:56:20.068Z,101449.63
2023-05-12T23:58:47.492Z,101445.25
